Airfield :
LOGIN :

Register | Disclaimer

   EN    FR    IT 

 










Legend :    VFR   Marginal VFR   IFR   Intensive IFR   Very Intensive IFR
Visi :
Ceiling :
>= 8 km
>= 3000ft
5 to 8 km
1000 to 3000 ft
1500m to 5 km
500 to 1000 ft
800 to 1500m
200 to 500 ft
< 800m
< 200 ft
Symbols :   Thunderstorms  Fog  Heavy snow  Heavy precipitations  Wind > 20 kt
SIGMETs :     Misc.  Thunderstorms  Icing  Turbulence  Mountain Waves  Volcanic Ashes






- Airport Elevation : 1234 ft
- IATA code : LUX


ELLX - Luxembourg Findel

CURRENT METAR :
  • 112120Z 21006KT 7000 FEW007 BKN011 BKN017 04/03 Q1006 NOSIG

EXPIRED METARs :
  • 112050Z 22007KT 8000 FEW008 BKN011 04/03 Q1006 NOSIG
  • 112020Z 22007KT 9999 SCT008 BKN010 04/03 Q1006 NOSIG
  • 111950Z 22007KT 9999 SCT008 BKN010 04/03 Q1006 NOSIG
  • 111920Z 23007KT 9000 SCT004 BKN009 04/03 Q1007 NOSIG
  • 111850Z 23006KT 9000 SCT005 BKN006 04/03 Q1007 NOSIG
  • 111820Z 25010KT 9999 SCT005 BKN006 04/04 Q1006 NOSIG

TAF TAF ELLX
Valid from the 11 at 18:00 until the 13 at 00:00 UTC


111700Z 1118/1224 23010KT 8000 SCT003 BKN005
TEMPO 1118/1207 3000 BR BKN003
PROB30
TEMPO 1121/1206 1500 -RASN
BECMG 1206/1209 BKN010
PROB40
TEMPO 1210/1220 BKN015
TEMPO 1221/1224 1200 SNRA BKN003
ATIS : +352 4798 27300
Met : +352 4798 27010 / 27050



MET'MAP, your aeronautical weather chart ! - Copyright ORBIFLY December 2007 - Disclaimer

ORBIFLY MET'MAP TEAM :

Programming & Development : Alexandra Zaïnal
Concept & original design : Baudouin d'Aumeries
Assistance for programming : Marc-Olivier Méhu
Technical & hardware support : Manuel Goepfert

Contact : metmap@orbifly.com




SOURCES & CREDITS :

   NOAA